CheckWX is a tool to help pilots better visualize weather data.  It is not intended as a substitute for an official pre-flight weather briefing.

21:49:44 UTC

LTAF METAR
Adana Airport
Adana, Turkey
Current

30 mins ago

LTAF 082120Z 04006KT 9999 SCT035 BKN100 15/12 Q1014 NOSIG RMK RWY23 05006KT
Observed
Apr-8 @ 21:20 UTC
Wind
  • 040° at 6 KTS
Visibility
10,000+ meters
Flight Rules
VFR
Cloud Levels
  • Scattered at 3,500' AGL
  • Broken at 10,000' AGL
Temperature
15°C / 59°F
Dewpoint
12°C / 54°F
Humidity
82%
Altimeter
29.94" Hg
Pressure
1013.92 hPa
Previous

60 mins ago

LTAF 082050Z 01005KT 9999 SCT035 BKN100 15/11 Q1014 NOSIG RMK RWY23 03005KT
Observed
Apr-8 @ 20:50 UTC
Wind
  • 010° at 5 KTS
Visibility
10,000+ meters
Flight Rules
VFR
Cloud Levels
  • Scattered at 3,500' AGL
  • Broken at 10,000' AGL
Temperature
15°C / 59°F
Dewpoint
11°C / 52°F
Humidity
77%
Altimeter
29.94" Hg
Pressure
1013.92 hPa
Previous

1 hour ago

LTAF 082020Z 31002KT 9999 SCT035 BKN100 16/14 Q1014 NOSIG RMK RWY23 31004KT 280V010
Observed
Apr-8 @ 20:20 UTC
Wind
  • 310° at 2 KTS
Visibility
10,000+ meters
Flight Rules
VFR
Cloud Levels
  • Scattered at 3,500' AGL
  • Broken at 10,000' AGL
Temperature
16°C / 61°F
Dewpoint
14°C / 57°F
Humidity
88%
Altimeter
29.94" Hg
Pressure
1013.92 hPa